Weather History for Willimantic, CT

Change the Weather History Date:

Tuesday, September 4, 2012

  Actual Average Record
Temperature  
Mean Temperature 70 °F -  
Max Temperature 77 °F 74 °F 91 °F (1953)
Min Temperature 64 °F 51 °F 33 °F (1987)
Cooling Degree Days 6    
Growing Degree Days 20 (Base 50)    
Moisture  
Dew Point 67 °F    
Average Humidity 87    
Maximum Humidity 94    
Minimum Humidity 75    
Precipitation  
Precipitation 1.30 in - - ()
Sea Level Pressure  
Sea Level Pressure 30.02 in    
Wind  
Wind Speed 2 mph (SSE)    
Max Wind Speed 8 mph    
Max Gust Speed -    
Visibility 7 miles    
Events Fog , Rain    
Averages and records for this station are not official NWS values.
T = Trace of Precipitation, MM = Missing Value Source: NWS Daily Summary

Daily Weather History Graph

Daily Weather History Graph

Search for Another Location

Airport:

Trip Planner

Search our weather history database for the weather conditions in past years. The results will help you decide how hot, cold, wet, or windy it might be!

Date:

Astronomy

Sep. 04, 2012 Rise Set
Actual Time 6:18 AM EDT 7:16 PM EDT
Civil Twilight 5:49 AM EDT 7:44 PM EDT
Nautical Twilight 5:15 AM EDT 8:18 PM EDT
Astronomical Twilight 4:40 AM EDT 8:53 PM EDT
Moon 9:02 PM EDT (9/4) 10:26 AM EDT (9/4)
Length of Visible Light 13h 54m
Length of Day
12h 58m
Waning Gibbous, 84% of the Moon is Illuminated
Sep 4
Waning Gibbous
Sep 8
Last Quarter
Sep 15
New
Sep 22
First Quarter
Sep 29
Full

Hourly Weather History & Observations

Time (EDT) Temp. Dew Point Humidity Pressure Visibility Wind Dir Wind Speed Gust Speed Precip Events Conditions
1:52 AM 66.0 °F 57.9 °F 75% 30.14 in 10.0 mi Calm Calm - N/A   Overcast
2:52 AM 66.0 °F 59.0 °F 78% 30.12 in 10.0 mi Calm Calm - N/A   Overcast
3:52 AM 66.0 °F 61.0 °F 84% 30.12 in 10.0 mi Calm Calm - N/A   Overcast
4:18 AM 66.2 °F 62.6 °F 88% 30.12 in 2.5 mi Calm Calm - 0.06 in Rain Heavy Rain
4:21 AM 66.2 °F 62.6 °F 88% 30.12 in 3.0 mi Calm Calm - 0.06 in Rain Heavy Rain
4:52 AM 66.0 °F 60.1 °F 81% 30.10 in 10.0 mi Calm Calm - 0.06 in   Overcast
5:17 AM 66.2 °F 60.8 °F 83% 30.10 in 10.0 mi Calm Calm - N/A   Overcast
5:29 AM 66.2 °F 60.8 °F 83% 30.10 in 10.0 mi Calm Calm - N/A   Overcast
5:52 AM 66.0 °F 61.0 °F 84% 30.10 in 10.0 mi Calm Calm - N/A   Overcast
6:52 AM 64.9 °F 62.1 °F 90% 30.10 in 9.0 mi Calm Calm - 0.00 in Rain Light Rain
7:08 AM 66.2 °F 62.6 °F 88% 30.10 in 1.8 mi North 3.5 mph - 0.04 in Rain Rain
7:22 AM 64.4 °F 62.6 °F 94% 30.10 in 3.0 mi NNW 4.6 mph - 0.06 in Rain Light Rain
7:28 AM 64.4 °F 62.6 °F 94% 30.10 in 1.8 mi NNW 3.5 mph - 0.10 in Rain Heavy Rain
7:42 AM 66.2 °F 62.6 °F 88% 30.10 in 3.0 mi Calm Calm - 0.14 in Rain Rain
7:49 AM 66.2 °F 62.6 °F 88% 30.10 in 1.8 mi Calm Calm - 0.17 in Rain Heavy Rain
7:52 AM 66.0 °F 63.0 °F 90% 30.09 in 1.5 mi Calm Calm - 0.19 in Rain Heavy Rain
8:05 AM 66.2 °F 64.4 °F 94% 30.09 in 3.0 mi Calm Calm - 0.03 in Rain Light Rain
8:16 AM 66.2 °F 64.4 °F 94% 30.09 in 1.8 mi Calm Calm - 0.06 in Rain Rain
8:52 AM 66.9 °F 64.0 °F 90% 30.08 in 1.8 mi NNE 3.5 mph - 0.31 in Rain Heavy Rain
8:55 AM 66.2 °F 64.4 °F 94% 30.08 in 1.8 mi Calm Calm - 0.03 in Rain Heavy Rain
9:18 AM 68.0 °F 64.4 °F 88% 30.08 in 0.8 mi Calm Calm - 0.23 in Rain Heavy Rain
9:25 AM 68.0 °F 64.4 °F 88% 30.08 in 0.8 mi Calm Calm - 0.29 in Rain Heavy Rain
9:34 AM 68.0 °F 64.4 °F 88% 30.07 in 1.0 mi ENE 5.8 mph - 0.43 in Rain Heavy Rain
9:52 AM 68.0 °F 64.9 °F 90% 30.09 in 0.5 mi Variable 5.8 mph - 0.68 in Fog , Rain Heavy Rain
10:00 AM 68.0 °F 66.2 °F 94% 30.08 in 2.5 mi Calm Calm - 0.01 in Rain Light Rain
10:03 AM 68.0 °F 66.2 °F 94% 30.08 in 6.0 mi Calm Calm - 0.01 in Rain Light Rain
10:34 AM 69.8 °F 66.2 °F 88% 30.07 in 5.0 mi Calm Calm - 0.03 in Rain Rain
10:52 AM 70.0 °F 66.0 °F 87% 30.06 in 7.0 mi Calm Calm - 0.05 in Rain Light Rain
11:34 AM 71.6 °F 68.0 °F 88% 30.06 in 10.0 mi Variable 3.5 mph - 0.01 in Rain Light Rain
11:52 AM 72.0 °F 68.0 °F 87% 30.05 in 10.0 mi Variable 4.6 mph - 0.01 in Rain Light Rain
12:32 PM 73.4 °F 69.8 °F 88% 30.04 in 10.0 mi SSE 5.8 mph - 0.00 in Rain Light Rain
12:52 PM 73.9 °F 69.1 °F 85% 30.03 in 10.0 mi South 5.8 mph - 0.00 in   Mostly Cloudy
12:55 PM 73.4 °F 69.8 °F 88% 30.03 in 10.0 mi SSE 5.8 mph - N/A   Mostly Cloudy
1:13 PM 73.4 °F 69.8 °F 88% 30.02 in 10.0 mi South 5.8 mph - N/A   Overcast
1:24 PM 75.2 °F 69.8 °F 83% 30.02 in 10.0 mi Variable 6.9 mph - N/A   Overcast
1:31 PM 75.2 °F 69.8 °F 83% 30.02 in 10.0 mi SSE 6.9 mph - N/A   Overcast
1:47 PM 75.2 °F 69.8 °F 83% 30.01 in 10.0 mi SSE 4.6 mph - N/A   Overcast
1:52 PM 75.0 °F 69.1 °F 82% 30.01 in 10.0 mi SSE 6.9 mph - N/A   Overcast
1:59 PM 75.2 °F 69.8 °F 83% 30.00 in 10.0 mi SE 3.5 mph - N/A   Overcast
2:47 PM 75.2 °F 69.8 °F 83% 29.98 in 10.0 mi SSE 6.9 mph - N/A   Overcast
2:52 PM 75.9 °F 70.0 °F 82% 29.98 in 10.0 mi South 6.9 mph - N/A   Overcast
3:06 PM 75.2 °F 69.8 °F 83% 29.98 in 10.0 mi South 6.9 mph - N/A   Overcast
3:38 PM 75.2 °F 71.6 °F 89% 29.97 in 10.0 mi South 5.8 mph - 0.01 in   Overcast
4:05 PM 77.0 °F 71.6 °F 83% 29.96 in 10.0 mi South 4.6 mph - N/A   Overcast
4:28 PM 77.0 °F 69.8 °F 78% 29.96 in 10.0 mi South 6.9 mph - N/A   Overcast
4:52 PM 77.0 °F 70.0 °F 79% 29.95 in 10.0 mi South 8.1 mph - N/A   Overcast
5:35 PM 77.0 °F 69.8 °F 78% 29.95 in 10.0 mi South 8.1 mph - N/A   Overcast
5:52 PM 77.0 °F 71.1 °F 82% 29.95 in 10.0 mi South 6.9 mph - N/A   Overcast
6:02 PM 75.2 °F 71.6 °F 89% 29.95 in 10.0 mi South 5.8 mph - N/A   Overcast
6:14 PM 75.2 °F 69.8 °F 83% 29.95 in 10.0 mi South 5.8 mph - N/A   Overcast
6:52 PM 75.9 °F 70.0 °F 82% 29.94 in 10.0 mi South 4.6 mph - N/A   Overcast
7:17 PM 75.2 °F 71.6 °F 89% 29.93 in 10.0 mi Calm Calm - N/A   Overcast
7:24 PM 75.2 °F 71.6 °F 89% 29.93 in 10.0 mi South 3.5 mph - N/A   Overcast
7:52 PM 75.0 °F 71.1 °F 87% 29.93 in 10.0 mi South 4.6 mph - N/A   Mostly Cloudy
8:05 PM 75.2 °F 71.6 °F 89% 29.93 in 10.0 mi SSE 3.5 mph - N/A   Overcast
8:52 PM 75.0 °F 71.1 °F 87% 29.93 in 9.0 mi South 3.5 mph - N/A   Overcast
9:38 PM 75.2 °F 71.6 °F 89% 29.92 in 9.0 mi South 4.6 mph - N/A   Overcast
9:50 PM 73.4 °F 71.6 °F 94% 29.92 in 8.0 mi South 4.6 mph - N/A   Overcast
9:52 PM 73.9 °F 71.1 °F 91% 29.92 in 8.0 mi South 4.6 mph - N/A   Mostly Cloudy
10:09 PM 75.2 °F 71.6 °F 89% 29.92 in 7.0 mi South 5.8 mph - N/A   Overcast
10:45 PM 75.2 °F 71.6 °F 89% 29.90 in 7.0 mi South 6.9 mph - N/A   Mostly Cloudy
10:52 PM 75.0 °F 71.1 °F 87% 29.89 in 7.0 mi South 5.8 mph - N/A   Mostly Cloudy
11:16 PM 75.2 °F 71.6 °F 89% 29.89 in 7.0 mi South 5.8 mph - N/A   Mostly Cloudy
11:52 PM 75.0 °F 71.1 °F 87% 29.88 in 8.0 mi South 5.8 mph - N/A   Overcast